sensor_id;sensor_type;location;lat;lon;timestamp;temperature;humidity
46139;DHT22;32398;49.112;8.598;2023-10-08T00:02:04;16.60;70.50
46139;DHT22;32398;49.112;8.598;2023-10-08T00:04:33;16.50;70.50
46139;DHT22;32398;49.112;8.598;2023-10-08T00:07:02;16.50;70.30
46139;DHT22;32398;49.112;8.598;2023-10-08T00:09:29;16.50;70.20
46139;DHT22;32398;49.112;8.598;2023-10-08T00:12:01;16.50;70.30
46139;DHT22;32398;49.112;8.598;2023-10-08T00:14:28;16.50;70.10
46139;DHT22;32398;49.112;8.598;2023-10-08T00:16:55;16.50;69.90
46139;DHT22;32398;49.112;8.598;2023-10-08T00:19:21;16.50;69.90
46139;DHT22;32398;49.112;8.598;2023-10-08T00:21:51;16.50;69.80
46139;DHT22;32398;49.112;8.598;2023-10-08T00:24:18;16.50;69.70
46139;DHT22;32398;49.112;8.598;2023-10-08T00:26:52;16.50;69.80
46139;DHT22;32398;49.112;8.598;2023-10-08T00:29:20;16.50;69.90
46139;DHT22;32398;49.112;8.598;2023-10-08T00:31:47;16.50;69.70
46139;DHT22;32398;49.112;8.598;2023-10-08T00:34:15;16.50;69.80
46139;DHT22;32398;49.112;8.598;2023-10-08T00:36:45;16.50;69.70
46139;DHT22;32398;49.112;8.598;2023-10-08T00:39:14;16.50;69.70
46139;DHT22;32398;49.112;8.598;2023-10-08T00:41:48;16.50;69.50
46139;DHT22;32398;49.112;8.598;2023-10-08T00:44:15;16.50;69.50
46139;DHT22;32398;49.112;8.598;2023-10-08T00:46:48;16.50;69.30
46139;DHT22;32398;49.112;8.598;2023-10-08T00:49:16;16.50;69.10
46139;DHT22;32398;49.112;8.598;2023-10-08T00:51:51;16.50;69.20
46139;DHT22;32398;49.112;8.598;2023-10-08T00:54:45;16.50;68.90
46139;DHT22;32398;49.112;8.598;2023-10-08T00:57:21;16.50;69.20
46139;DHT22;32398;49.112;8.598;2023-10-08T00:59:49;16.50;68.70
46139;DHT22;32398;49.112;8.598;2023-10-08T01:02:19;16.50;68.50
46139;DHT22;32398;49.112;8.598;2023-10-08T01:04:49;16.50;68.70
46139;DHT22;32398;49.112;8.598;2023-10-08T01:07:16;16.50;68.40
46139;DHT22;32398;49.112;8.598;2023-10-08T01:09:46;16.50;68.10
46139;DHT22;32398;49.112;8.598;2023-10-08T01:12:16;16.50;67.80
46139;DHT22;32398;49.112;8.598;2023-10-08T01:14:49;16.50;67.70
46139;DHT22;32398;49.112;8.598;2023-10-08T01:17:19;16.50;67.60
46139;DHT22;32398;49.112;8.598;2023-10-08T01:19:49;16.50;67.60
46139;DHT22;32398;49.112;8.598;2023-10-08T01:22:21;16.50;67.50
46139;DHT22;32398;49.112;8.598;2023-10-08T01:24:49;16.50;67.20
46139;DHT22;32398;49.112;8.598;2023-10-08T01:27:16;16.50;67.20
46139;DHT22;32398;49.112;8.598;2023-10-08T01:29:47;16.50;67.20
46139;DHT22;32398;49.112;8.598;2023-10-08T01:32:15;16.50;67.10
46139;DHT22;32398;49.112;8.598;2023-10-08T01:34:42;16.50;67.30
46139;DHT22;32398;49.112;8.598;2023-10-08T01:37:12;16.50;67.20
46139;DHT22;32398;49.112;8.598;2023-10-08T01:39:40;16.50;67.30
46139;DHT22;32398;49.112;8.598;2023-10-08T01:42:08;16.40;67.40
46139;DHT22;32398;49.112;8.598;2023-10-08T01:44:41;16.40;67.20
46139;DHT22;32398;49.112;8.598;2023-10-08T01:47:09;16.40;67.00
46139;DHT22;32398;49.112;8.598;2023-10-08T01:49:37;16.40;66.70
46139;DHT22;32398;49.112;8.598;2023-10-08T01:52:05;16.40;66.70
46139;DHT22;32398;49.112;8.598;2023-10-08T01:54:38;16.40;66.70
46139;DHT22;32398;49.112;8.598;2023-10-08T01:57:07;16.40;66.40
46139;DHT22;32398;49.112;8.598;2023-10-08T01:59:35;16.40;66.50
46139;DHT22;32398;49.112;8.598;2023-10-08T02:02:04;16.40;66.20
46139;DHT22;32398;49.112;8.598;2023-10-08T02:04:31;16.40;66.10
46139;DHT22;32398;49.112;8.598;2023-10-08T02:06:58;16.40;66.70
46139;DHT22;32398;49.112;8.598;2023-10-08T02:09:25;16.40;66.10
46139;DHT22;32398;49.112;8.598;2023-10-08T02:11:52;16.40;66.30
46139;DHT22;32398;49.112;8.598;2023-10-08T02:14:21;16.40;66.30
46139;DHT22;32398;49.112;8.598;2023-10-08T02:16:48;16.40;66.10
46139;DHT22;32398;49.112;8.598;2023-10-08T02:19:18;16.30;66.20
46139;DHT22;32398;49.112;8.598;2023-10-08T02:21:52;16.30;66.10
46139;DHT22;32398;49.112;8.598;2023-10-08T02:24:19;16.30;66.70
46139;DHT22;32398;49.112;8.598;2023-10-08T02:26:46;16.30;66.50
46139;DHT22;32398;49.112;8.598;2023-10-08T02:29:13;16.30;66.40
46139;DHT22;32398;49.112;8.598;2023-10-08T02:31:41;16.30;66.40
46139;DHT22;32398;49.112;8.598;2023-10-08T02:34:08;16.30;66.40
46139;DHT22;32398;49.112;8.598;2023-10-08T02:36:35;16.30;66.30
46139;DHT22;32398;49.112;8.598;2023-10-08T02:39:02;16.30;65.90
46139;DHT22;32398;49.112;8.598;2023-10-08T02:41:39;16.30;66.10
46139;DHT22;32398;49.112;8.598;2023-10-08T02:44:07;16.30;66.30
46139;DHT22;32398;49.112;8.598;2023-10-08T02:46:38;16.30;66.20
46139;DHT22;32398;49.112;8.598;2023-10-08T02:49:07;16.30;66.50
46139;DHT22;32398;49.112;8.598;2023-10-08T02:51:36;16.20;65.80
46139;DHT22;32398;49.112;8.598;2023-10-08T02:54:03;16.30;66.20
46139;DHT22;32398;49.112;8.598;2023-10-08T02:56:31;16.20;66.20
46139;DHT22;32398;49.112;8.598;2023-10-08T02:58:58;16.20;66.30
46139;DHT22;32398;49.112;8.598;2023-10-08T03:01:25;16.20;66.30
46139;DHT22;32398;49.112;8.598;2023-10-08T03:03:52;16.20;66.20
46139;DHT22;32398;49.112;8.598;2023-10-08T03:06:29;16.20;66.20
46139;DHT22;32398;49.112;8.598;2023-10-08T03:08:57;16.20;66.40
46139;DHT22;32398;49.112;8.598;2023-10-08T03:11:29;16.20;66.50
46139;DHT22;32398;49.112;8.598;2023-10-08T03:13:56;16.20;66.30
46139;DHT22;32398;49.112;8.598;2023-10-08T03:16:23;16.20;66.30
46139;DHT22;32398;49.112;8.598;2023-10-08T03:18:54;16.10;65.90
46139;DHT22;32398;49.112;8.598;2023-10-08T03:21:22;16.20;66.10
46139;DHT22;32398;49.112;8.598;2023-10-08T03:24:10;16.10;66.10
46139;DHT22;32398;49.112;8.598;2023-10-08T03:26:49;16.10;65.90
46139;DHT22;32398;49.112;8.598;2023-10-08T03:29:20;16.10;65.80
46139;DHT22;32398;49.112;8.598;2023-10-08T03:31:49;16.10;65.90
46139;DHT22;32398;49.112;8.598;2023-10-08T03:34:16;16.10;65.70
46139;DHT22;32398;49.112;8.598;2023-10-08T03:36:44;16.10;65.40
46139;DHT22;32398;49.112;8.598;2023-10-08T03:39:12;16.10;65.70
46139;DHT22;32398;49.112;8.598;2023-10-08T03:41:39;16.10;66.10
46139;DHT22;32398;49.112;8.598;2023-10-08T03:44:06;16.10;66.20
46139;DHT22;32398;49.112;8.598;2023-10-08T03:46:38;16.10;66.00
46139;DHT22;32398;49.112;8.598;2023-10-08T03:49:07;16.10;66.20
46139;DHT22;32398;49.112;8.598;2023-10-08T03:51:40;16.00;65.50
46139;DHT22;32398;49.112;8.598;2023-10-08T03:54:07;16.00;65.20
46139;DHT22;32398;49.112;8.598;2023-10-08T03:56:45;16.00;65.30
46139;DHT22;32398;49.112;8.598;2023-10-08T03:59:12;16.00;65.00
46139;DHT22;32398;49.112;8.598;2023-10-08T04:01:40;16.00;65.70
46139;DHT22;32398;49.112;8.598;2023-10-08T04:04:07;16.00;65.70
46139;DHT22;32398;49.112;8.598;2023-10-08T04:06:38;15.90;65.20
46139;DHT22;32398;49.112;8.598;2023-10-08T04:09:05;16.00;65.20
46139;DHT22;32398;49.112;8.598;2023-10-08T04:11:42;15.90;65.20
46139;DHT22;32398;49.112;8.598;2023-10-08T04:14:19;15.90;65.00
46139;DHT22;32398;49.112;8.598;2023-10-08T04:16:46;15.90;65.00
46139;DHT22;32398;49.112;8.598;2023-10-08T04:19:17;15.90;64.80
46139;DHT22;32398;49.112;8.598;2023-10-08T04:21:44;15.90;64.90
46139;DHT22;32398;49.112;8.598;2023-10-08T04:24:11;15.90;64.80
46139;DHT22;32398;49.112;8.598;2023-10-08T04:26:40;15.90;64.80
46139;DHT22;32398;49.112;8.598;2023-10-08T04:29:08;15.90;64.50
46139;DHT22;32398;49.112;8.598;2023-10-08T04:31:36;15.90;64.70
46139;DHT22;32398;49.112;8.598;2023-10-08T04:34:08;15.90;64.70
46139;DHT22;32398;49.112;8.598;2023-10-08T04:36:41;15.80;63.80
46139;DHT22;32398;49.112;8.598;2023-10-08T04:39:08;15.80;64.20
46139;DHT22;32398;49.112;8.598;2023-10-08T04:41:41;15.80;64.40
46139;DHT22;32398;49.112;8.598;2023-10-08T04:44:09;15.80;64.50
46139;DHT22;32398;49.112;8.598;2023-10-08T04:46:41;15.90;64.60
46139;DHT22;32398;49.112;8.598;2023-10-08T04:49:17;15.80;64.70
46139;DHT22;32398;49.112;8.598;2023-10-08T04:51:54;15.80;64.90
46139;DHT22;32398;49.112;8.598;2023-10-08T04:54:23;15.80;65.00
46139;DHT22;32398;49.112;8.598;2023-10-08T04:56:50;15.80;65.10
46139;DHT22;32398;49.112;8.598;2023-10-08T04:59:18;15.80;65.20
46139;DHT22;32398;49.112;8.598;2023-10-08T05:01:48;15.80;65.10
46139;DHT22;32398;49.112;8.598;2023-10-08T05:04:35;15.70;65.10
46139;DHT22;32398;49.112;8.598;2023-10-08T05:07:12;15.80;65.00
46139;DHT22;32398;49.112;8.598;2023-10-08T05:10:05;15.80;65.00
46139;DHT22;32398;49.112;8.598;2023-10-08T05:12:56;15.70;65.00
46139;DHT22;32398;49.112;8.598;2023-10-08T05:15:41;15.70;64.70
46139;DHT22;32398;49.112;8.598;2023-10-08T05:18:08;15.80;64.60
46139;DHT22;32398;49.112;8.598;2023-10-08T05:20:44;15.70;64.60
46139;DHT22;32398;49.112;8.598;2023-10-08T05:23:24;15.70;64.80
46139;DHT22;32398;49.112;8.598;2023-10-08T05:26:05;15.70;64.90
46139;DHT22;32398;49.112;8.598;2023-10-08T05:28:45;15.70;64.60
46139;DHT22;32398;49.112;8.598;2023-10-08T05:31:13;15.70;64.90
46139;DHT22;32398;49.112;8.598;2023-10-08T05:34:03;15.70;65.00
46139;DHT22;32398;49.112;8.598;2023-10-08T05:36:40;15.70;64.80
46139;DHT22;32398;49.112;8.598;2023-10-08T05:39:26;15.70;65.00
46139;DHT22;32398;49.112;8.598;2023-10-08T05:41:55;15.70;64.90
46139;DHT22;32398;49.112;8.598;2023-10-08T05:44:38;15.60;64.80
46139;DHT22;32398;49.112;8.598;2023-10-08T05:47:05;15.60;64.70
46139;DHT22;32398;49.112;8.598;2023-10-08T05:49:50;15.70;64.70
46139;DHT22;32398;49.112;8.598;2023-10-08T05:52:40;15.60;64.50
46139;DHT22;32398;49.112;8.598;2023-10-08T05:55:16;15.60;64.50
46139;DHT22;32398;49.112;8.598;2023-10-08T05:57:51;15.60;64.60
46139;DHT22;32398;49.112;8.598;2023-10-08T06:00:28;15.60;64.20
46139;DHT22;32398;49.112;8.598;2023-10-08T06:03:31;15.70;64.30
46139;DHT22;32398;49.112;8.598;2023-10-08T06:06:07;15.60;63.80
46139;DHT22;32398;49.112;8.598;2023-10-08T06:09:01;15.60;63.80
46139;DHT22;32398;49.112;8.598;2023-10-08T06:11:47;15.60;63.50
46139;DHT22;32398;49.112;8.598;2023-10-08T06:14:21;15.60;63.30
46139;DHT22;32398;49.112;8.598;2023-10-08T06:17:01;15.60;63.30
46139;DHT22;32398;49.112;8.598;2023-10-08T06:19:38;15.60;63.40
46139;DHT22;32398;49.112;8.598;2023-10-08T06:22:05;15.60;63.50
46139;DHT22;32398;49.112;8.598;2023-10-08T06:24:33;15.60;63.60
46139;DHT22;32398;49.112;8.598;2023-10-08T06:27:04;15.60;63.80
46139;DHT22;32398;49.112;8.598;2023-10-08T06:29:31;15.60;63.90
46139;DHT22;32398;49.112;8.598;2023-10-08T06:31:58;15.60;63.90
46139;DHT22;32398;49.112;8.598;2023-10-08T06:34:27;15.60;63.90
46139;DHT22;32398;49.112;8.598;2023-10-08T06:36:55;15.60;64.00
46139;DHT22;32398;49.112;8.598;2023-10-08T06:39:23;15.60;64.20
46139;DHT22;32398;49.112;8.598;2023-10-08T06:41:53;15.60;64.40
46139;DHT22;32398;49.112;8.598;2023-10-08T06:44:19;15.60;64.40
46139;DHT22;32398;49.112;8.598;2023-10-08T06:46:46;15.60;64.60
46139;DHT22;32398;49.112;8.598;2023-10-08T06:49:18;15.60;64.70
46139;DHT22;32398;49.112;8.598;2023-10-08T06:51:45;15.50;64.70
46139;DHT22;32398;49.112;8.598;2023-10-08T06:54:13;15.50;64.80
46139;DHT22;32398;49.112;8.598;2023-10-08T06:56:42;15.50;64.60
46139;DHT22;32398;49.112;8.598;2023-10-08T06:59:13;15.50;64.80
46139;DHT22;32398;49.112;8.598;2023-10-08T07:01:40;15.50;65.00
46139;DHT22;32398;49.112;8.598;2023-10-08T07:04:11;15.50;65.00
46139;DHT22;32398;49.112;8.598;2023-10-08T07:06:38;15.50;65.10
46139;DHT22;32398;49.112;8.598;2023-10-08T07:09:05;15.50;65.10
46139;DHT22;32398;49.112;8.598;2023-10-08T07:11:39;15.50;65.30
46139;DHT22;32398;49.112;8.598;2023-10-08T07:14:10;15.50;65.30
46139;DHT22;32398;49.112;8.598;2023-10-08T07:16:40;15.50;65.60
46139;DHT22;32398;49.112;8.598;2023-10-08T07:19:07;15.50;65.50
46139;DHT22;32398;49.112;8.598;2023-10-08T07:21:43;15.50;65.50
46139;DHT22;32398;49.112;8.598;2023-10-08T07:24:11;15.50;65.50
46139;DHT22;32398;49.112;8.598;2023-10-08T07:26:40;15.50;65.60
46139;DHT22;32398;49.112;8.598;2023-10-08T07:29:12;15.50;65.60
46139;DHT22;32398;49.112;8.598;2023-10-08T07:31:43;15.50;65.50
46139;DHT22;32398;49.112;8.598;2023-10-08T07:34:14;15.50;65.50
46139;DHT22;32398;49.112;8.598;2023-10-08T07:36:45;15.50;65.50
46139;DHT22;32398;49.112;8.598;2023-10-08T07:39:12;15.50;65.60
46139;DHT22;32398;49.112;8.598;2023-10-08T07:41:50;15.50;65.90
46139;DHT22;32398;49.112;8.598;2023-10-08T07:44:16;15.50;66.10
46139;DHT22;32398;49.112;8.598;2023-10-08T07:46:47;15.50;66.20
46139;DHT22;32398;49.112;8.598;2023-10-08T07:49:14;15.50;66.30
46139;DHT22;32398;49.112;8.598;2023-10-08T07:51:40;15.50;66.50
46139;DHT22;32398;49.112;8.598;2023-10-08T07:54:13;15.50;66.70
46139;DHT22;32398;49.112;8.598;2023-10-08T07:56:41;15.50;66.80
46139;DHT22;32398;49.112;8.598;2023-10-08T07:59:08;15.50;66.90
46139;DHT22;32398;49.112;8.598;2023-10-08T08:01:38;15.50;67.00
46139;DHT22;32398;49.112;8.598;2023-10-08T08:04:07;15.50;67.20
46139;DHT22;32398;49.112;8.598;2023-10-08T08:06:36;15.50;67.30
46139;DHT22;32398;49.112;8.598;2023-10-08T08:09:02;15.50;67.50
46139;DHT22;32398;49.112;8.598;2023-10-08T08:11:33;15.50;67.50
46139;DHT22;32398;49.112;8.598;2023-10-08T08:14:02;15.50;67.70
46139;DHT22;32398;49.112;8.598;2023-10-08T08:16:33;15.50;67.80
46139;DHT22;32398;49.112;8.598;2023-10-08T08:19:02;15.50;67.90
46139;DHT22;32398;49.112;8.598;2023-10-08T08:21:30;15.50;68.00
46139;DHT22;32398;49.112;8.598;2023-10-08T08:23:56;15.50;68.10
46139;DHT22;32398;49.112;8.598;2023-10-08T08:26:30;15.60;68.20
46139;DHT22;32398;49.112;8.598;2023-10-08T08:29:04;15.60;68.30
46139;DHT22;32398;49.112;8.598;2023-10-08T08:31:34;15.60;68.50
46139;DHT22;32398;49.112;8.598;2023-10-08T08:34:01;15.60;68.60
46139;DHT22;32398;49.112;8.598;2023-10-08T08:36:34;15.60;68.50
46139;DHT22;32398;49.112;8.598;2023-10-08T08:39:04;15.60;68.90
46139;DHT22;32398;49.112;8.598;2023-10-08T08:41:36;15.70;69.10
46139;DHT22;32398;49.112;8.598;2023-10-08T08:44:03;15.70;69.10
46139;DHT22;32398;49.112;8.598;2023-10-08T08:46:32;15.70;69.20
46139;DHT22;32398;49.112;8.598;2023-10-08T08:49:01;15.70;69.40
46139;DHT22;32398;49.112;8.598;2023-10-08T08:51:29;15.70;69.40
46139;DHT22;32398;49.112;8.598;2023-10-08T08:53:57;15.80;69.50
46139;DHT22;32398;49.112;8.598;2023-10-08T08:56:25;15.80;69.80
46139;DHT22;32398;49.112;8.598;2023-10-08T08:58:52;15.80;69.80
46139;DHT22;32398;49.112;8.598;2023-10-08T09:01:19;15.80;69.80
46139;DHT22;32398;49.112;8.598;2023-10-08T09:03:46;15.80;70.00
46139;DHT22;32398;49.112;8.598;2023-10-08T09:06:13;15.90;70.00
46139;DHT22;32398;49.112;8.598;2023-10-08T09:08:40;15.90;70.20
46139;DHT22;32398;49.112;8.598;2023-10-08T09:11:14;15.90;70.00
46139;DHT22;32398;49.112;8.598;2023-10-08T09:13:41;15.90;70.00
46139;DHT22;32398;49.112;8.598;2023-10-08T09:16:11;16.00;70.10
46139;DHT22;32398;49.112;8.598;2023-10-08T09:18:38;16.00;70.20
46139;DHT22;32398;49.112;8.598;2023-10-08T09:21:08;16.00;70.20
46139;DHT22;32398;49.112;8.598;2023-10-08T09:23:38;16.00;70.40
46139;DHT22;32398;49.112;8.598;2023-10-08T09:26:08;16.00;70.40
46139;DHT22;32398;49.112;8.598;2023-10-08T09:28:36;16.00;70.40
46139;DHT22;32398;49.112;8.598;2023-10-08T09:31:04;16.00;70.40
46139;DHT22;32398;49.112;8.598;2023-10-08T09:33:32;16.10;70.50
46139;DHT22;32398;49.112;8.598;2023-10-08T09:35:58;16.10;70.50
46139;DHT22;32398;49.112;8.598;2023-10-08T09:38:28;16.10;70.50
46139;DHT22;32398;49.112;8.598;2023-10-08T09:40:55;16.10;70.50
46139;DHT22;32398;49.112;8.598;2023-10-08T09:43:22;16.20;70.70
46139;DHT22;32398;49.112;8.598;2023-10-08T09:45:53;16.20;70.70
46139;DHT22;32398;49.112;8.598;2023-10-08T09:48:21;16.30;70.90
46139;DHT22;32398;49.112;8.598;2023-10-08T09:50:48;16.30;70.80
46139;DHT22;32398;49.112;8.598;2023-10-08T09:53:17;16.30;70.80
46139;DHT22;32398;49.112;8.598;2023-10-08T09:55:52;16.30;70.80
46139;DHT22;32398;49.112;8.598;2023-10-08T09:58:19;16.30;70.90
46139;DHT22;32398;49.112;8.598;2023-10-08T10:00:47;16.40;70.90
46139;DHT22;32398;49.112;8.598;2023-10-08T10:03:16;16.30;70.80
46139;DHT22;32398;49.112;8.598;2023-10-08T10:05:44;16.40;70.90
46139;DHT22;32398;49.112;8.598;2023-10-08T10:08:11;16.50;70.90
46139;DHT22;32398;49.112;8.598;2023-10-08T10:10:37;16.50;70.90
46139;DHT22;32398;49.112;8.598;2023-10-08T10:13:05;16.50;70.90
46139;DHT22;32398;49.112;8.598;2023-10-08T10:15:33;16.60;71.00
46139;DHT22;32398;49.112;8.598;2023-10-08T10:18:07;16.60;70.90
46139;DHT22;32398;49.112;8.598;2023-10-08T10:20:39;16.70;71.00
46139;DHT22;32398;49.112;8.598;2023-10-08T10:23:33;16.70;70.90
46139;DHT22;32398;49.112;8.598;2023-10-08T10:26:01;16.80;70.80
46139;DHT22;32398;49.112;8.598;2023-10-08T10:28:28;16.80;71.00
46139;DHT22;32398;49.112;8.598;2023-10-08T10:30:54;16.90;71.00
46139;DHT22;32398;49.112;8.598;2023-10-08T10:33:21;16.90;70.90
46139;DHT22;32398;49.112;8.598;2023-10-08T10:35:50;16.90;71.00
46139;DHT22;32398;49.112;8.598;2023-10-08T10:38:18;17.00;70.90
46139;DHT22;32398;49.112;8.598;2023-10-08T10:40:48;17.10;70.70
46139;DHT22;32398;49.112;8.598;2023-10-08T10:43:23;17.10;70.60
46139;DHT22;32398;49.112;8.598;2023-10-08T10:45:58;17.20;70.60
46139;DHT22;32398;49.112;8.598;2023-10-08T10:48:25;17.30;71.00
46139;DHT22;32398;49.112;8.598;2023-10-08T10:51:01;17.40;70.50
46139;DHT22;32398;49.112;8.598;2023-10-08T10:53:42;17.40;70.40
46139;DHT22;32398;49.112;8.598;2023-10-08T10:56:12;17.50;70.20
46139;DHT22;32398;49.112;8.598;2023-10-08T10:58:45;17.60;70.10
46139;DHT22;32398;49.112;8.598;2023-10-08T11:01:11;17.70;70.10
46139;DHT22;32398;49.112;8.598;2023-10-08T11:03:49;17.80;70.00
46139;DHT22;32398;49.112;8.598;2023-10-08T11:06:18;17.80;70.00
46139;DHT22;32398;49.112;8.598;2023-10-08T11:08:48;17.90;70.00
46139;DHT22;32398;49.112;8.598;2023-10-08T11:11:16;18.00;70.00
46139;DHT22;32398;49.112;8.598;2023-10-08T11:13:43;18.00;69.90
46139;DHT22;32398;49.112;8.598;2023-10-08T11:16:15;18.10;69.70
46139;DHT22;32398;49.112;8.598;2023-10-08T11:18:45;18.20;69.50
46139;DHT22;32398;49.112;8.598;2023-10-08T11:21:15;18.30;69.40
46139;DHT22;32398;49.112;8.598;2023-10-08T11:23:45;18.30;70.00
46139;DHT22;32398;49.112;8.598;2023-10-08T11:26:18;18.40;69.10
46139;DHT22;32398;49.112;8.598;2023-10-08T11:28:44;18.50;69.10
46139;DHT22;32398;49.112;8.598;2023-10-08T11:31:13;18.50;69.00
46139;DHT22;32398;49.112;8.598;2023-10-08T11:33:40;18.60;68.90
46139;DHT22;32398;49.112;8.598;2023-10-08T11:36:07;18.70;68.80
46139;DHT22;32398;49.112;8.598;2023-10-08T11:38:45;18.70;68.60
46139;DHT22;32398;49.112;8.598;2023-10-08T11:41:15;18.80;68.40
46139;DHT22;32398;49.112;8.598;2023-10-08T11:43:48;18.90;68.50
46139;DHT22;32398;49.112;8.598;2023-10-08T11:46:22;19.00;68.10
46139;DHT22;32398;49.112;8.598;2023-10-08T11:48:51;19.10;67.90
46139;DHT22;32398;49.112;8.598;2023-10-08T11:51:17;19.20;67.90
46139;DHT22;32398;49.112;8.598;2023-10-08T11:53:50;19.20;67.60
46139;DHT22;32398;49.112;8.598;2023-10-08T11:56:18;19.30;67.30
46139;DHT22;32398;49.112;8.598;2023-10-08T11:58:48;19.30;67.20
46139;DHT22;32398;49.112;8.598;2023-10-08T12:01:16;19.40;67.40
46139;DHT22;32398;49.112;8.598;2023-10-08T12:03:43;19.50;66.90
46139;DHT22;32398;49.112;8.598;2023-10-08T12:06:10;19.50;66.80
46139;DHT22;32398;49.112;8.598;2023-10-08T12:08:41;19.60;66.70
46139;DHT22;32398;49.112;8.598;2023-10-08T12:11:11;19.70;66.50
46139;DHT22;32398;49.112;8.598;2023-10-08T12:13:38;19.70;66.60
46139;DHT22;32398;49.112;8.598;2023-10-08T12:16:10;19.80;66.40
46139;DHT22;32398;49.112;8.598;2023-10-08T12:18:38;19.80;66.70
46139;DHT22;32398;49.112;8.598;2023-10-08T12:21:05;19.90;66.00
46139;DHT22;32398;49.112;8.598;2023-10-08T12:23:36;19.90;66.10
46139;DHT22;32398;49.112;8.598;2023-10-08T12:26:03;20.00;65.80
46139;DHT22;32398;49.112;8.598;2023-10-08T12:28:34;20.00;65.80
46139;DHT22;32398;49.112;8.598;2023-10-08T12:31:01;20.10;65.50
46139;DHT22;32398;49.112;8.598;2023-10-08T12:33:29;20.20;65.70
46139;DHT22;32398;49.112;8.598;2023-10-08T12:35:57;20.20;65.50
46139;DHT22;32398;49.112;8.598;2023-10-08T12:38:23;20.30;65.50
46139;DHT22;32398;49.112;8.598;2023-10-08T12:40:53;20.30;65.40
46139;DHT22;32398;49.112;8.598;2023-10-08T12:43:19;20.40;65.10
46139;DHT22;32398;49.112;8.598;2023-10-08T12:45:48;20.40;64.60
46139;DHT22;32398;49.112;8.598;2023-10-08T12:48:21;20.50;65.00
46139;DHT22;32398;49.112;8.598;2023-10-08T12:50:48;20.50;64.80
46139;DHT22;32398;49.112;8.598;2023-10-08T12:53:22;20.50;64.60
46139;DHT22;32398;49.112;8.598;2023-10-08T12:55:52;20.60;64.50
46139;DHT22;32398;49.112;8.598;2023-10-08T12:58:20;20.60;64.70
46139;DHT22;32398;49.112;8.598;2023-10-08T13:00:52;20.70;64.60
46139;DHT22;32398;49.112;8.598;2023-10-08T13:03:24;20.70;64.40
46139;DHT22;32398;49.112;8.598;2023-10-08T13:05:50;20.70;64.30
46139;DHT22;32398;49.112;8.598;2023-10-08T13:08:18;20.80;64.40
46139;DHT22;32398;49.112;8.598;2023-10-08T13:10:45;20.80;64.40
46139;DHT22;32398;49.112;8.598;2023-10-08T13:13:11;20.90;64.50
46139;DHT22;32398;49.112;8.598;2023-10-08T13:15:38;20.90;64.10
46139;DHT22;32398;49.112;8.598;2023-10-08T13:18:08;21.00;64.30
46139;DHT22;32398;49.112;8.598;2023-10-08T13:20:34;21.00;64.10
46139;DHT22;32398;49.112;8.598;2023-10-08T13:23:01;21.10;64.20
46139;DHT22;32398;49.112;8.598;2023-10-08T13:25:27;21.10;63.80
46139;DHT22;32398;49.112;8.598;2023-10-08T13:27:56;21.20;64.00
46139;DHT22;32398;49.112;8.598;2023-10-08T13:30:22;21.20;64.00
46139;DHT22;32398;49.112;8.598;2023-10-08T13:32:49;21.20;64.00
46139;DHT22;32398;49.112;8.598;2023-10-08T13:35:18;21.30;64.00
46139;DHT22;32398;49.112;8.598;2023-10-08T13:37:44;21.30;64.00
46139;DHT22;32398;49.112;8.598;2023-10-08T13:40:13;21.40;63.90
46139;DHT22;32398;49.112;8.598;2023-10-08T13:42:41;21.40;63.90
46139;DHT22;32398;49.112;8.598;2023-10-08T13:45:08;21.40;63.80
46139;DHT22;32398;49.112;8.598;2023-10-08T13:47:35;21.50;63.70
46139;DHT22;32398;49.112;8.598;2023-10-08T13:50:05;21.60;63.70
46139;DHT22;32398;49.112;8.598;2023-10-08T13:52:37;21.50;63.90
46139;DHT22;32398;49.112;8.598;2023-10-08T13:55:05;21.60;63.50
46139;DHT22;32398;49.112;8.598;2023-10-08T13:57:32;21.60;63.70
46139;DHT22;32398;49.112;8.598;2023-10-08T14:00:00;21.60;63.60
46139;DHT22;32398;49.112;8.598;2023-10-08T14:02:26;21.70;63.70
46139;DHT22;32398;49.112;8.598;2023-10-08T14:04:55;21.70;63.40
46139;DHT22;32398;49.112;8.598;2023-10-08T14:07:23;21.70;63.40
46139;DHT22;32398;49.112;8.598;2023-10-08T14:09:51;21.80;63.60
46139;DHT22;32398;49.112;8.598;2023-10-08T14:12:19;21.80;63.50
46139;DHT22;32398;49.112;8.598;2023-10-08T14:14:45;21.90;63.50
46139;DHT22;32398;49.112;8.598;2023-10-08T14:17:14;21.90;63.40
46139;DHT22;32398;49.112;8.598;2023-10-08T14:19:42;21.90;63.40
46139;DHT22;32398;49.112;8.598;2023-10-08T14:22:24;21.90;63.40
46139;DHT22;32398;49.112;8.598;2023-10-08T14:24:53;22.00;63.30
46139;DHT22;32398;49.112;8.598;2023-10-08T14:27:24;22.00;63.30
46139;DHT22;32398;49.112;8.598;2023-10-08T14:29:56;22.00;62.90
46139;DHT22;32398;49.112;8.598;2023-10-08T14:32:26;22.10;63.10
46139;DHT22;32398;49.112;8.598;2023-10-08T14:34:53;22.10;63.10
46139;DHT22;32398;49.112;8.598;2023-10-08T14:37:37;22.10;63.20
46139;DHT22;32398;49.112;8.598;2023-10-08T14:40:22;22.10;63.20
46139;DHT22;32398;49.112;8.598;2023-10-08T14:43:06;22.10;63.20
46139;DHT22;32398;49.112;8.598;2023-10-08T14:45:36;22.10;63.20
46139;DHT22;32398;49.112;8.598;2023-10-08T14:48:06;22.10;63.00
46139;DHT22;32398;49.112;8.598;2023-10-08T14:50:36;22.10;62.90
46139;DHT22;32398;49.112;8.598;2023-10-08T14:53:04;22.10;63.30
46139;DHT22;32398;49.112;8.598;2023-10-08T14:55:32;22.10;63.50
46139;DHT22;32398;49.112;8.598;2023-10-08T14:58:01;22.10;63.40
46139;DHT22;32398;49.112;8.598;2023-10-08T15:00:33;22.10;63.50
46139;DHT22;32398;49.112;8.598;2023-10-08T15:03:01;22.10;63.50
46139;DHT22;32398;49.112;8.598;2023-10-08T15:05:29;22.10;63.70
46139;DHT22;32398;49.112;8.598;2023-10-08T15:07:56;22.10;63.80
46139;DHT22;32398;49.112;8.598;2023-10-08T15:10:23;22.10;63.90
46139;DHT22;32398;49.112;8.598;2023-10-08T15:12:52;22.00;63.80
46139;DHT22;32398;49.112;8.598;2023-10-08T15:15:19;22.00;63.90
46139;DHT22;32398;49.112;8.598;2023-10-08T15:17:48;22.10;64.10
46139;DHT22;32398;49.112;8.598;2023-10-08T15:20:15;22.00;64.10
46139;DHT22;32398;49.112;8.598;2023-10-08T15:22:45;22.00;64.20
46139;DHT22;32398;49.112;8.598;2023-10-08T15:25:13;22.00;64.30
46139;DHT22;32398;49.112;8.598;2023-10-08T15:27:39;22.00;64.30
46139;DHT22;32398;49.112;8.598;2023-10-08T15:30:08;22.00;64.40
46139;DHT22;32398;49.112;8.598;2023-10-08T15:32:37;22.00;64.40
46139;DHT22;32398;49.112;8.598;2023-10-08T15:35:05;22.00;64.40
46139;DHT22;32398;49.112;8.598;2023-10-08T15:37:34;22.00;64.60
46139;DHT22;32398;49.112;8.598;2023-10-08T15:40:00;22.00;64.70
46139;DHT22;32398;49.112;8.598;2023-10-08T15:42:31;22.00;65.30
46139;DHT22;32398;49.112;8.598;2023-10-08T15:44:58;22.00;65.00
46139;DHT22;32398;49.112;8.598;2023-10-08T15:47:26;21.90;65.40
46139;DHT22;32398;49.112;8.598;2023-10-08T15:49:52;21.90;65.50